Time;durP1;ratioP1;P1;durP2;ratioP2;P2;SDS_P1;SDS_P2;PMS_P1;PMS_P2;Temp;Humidity;BMP_temperature;BMP_pressure;BME280_temperature;BME280_humidity;BME280_pressure;Samples;Min_cycle;Max_cycle;Signal;HPM_P1;HPM_P2
2022/06/04 00:00:23;;;;;;;8.00;5.60;;;18.10;84.60;;;16.99;98.49;96054.84;5033603;28;20037;-66
2022/06/04 00:02:49;;;;;;;8.55;5.07;;;18.10;84.50;;;17.00;98.18;96068.94;5029864;28;20069;-66
2022/06/04 00:05:20;;;;;;;6.05;5.10;;;18.10;84.40;;;16.97;98.21;96059.53;5024391;28;20056;-66
2022/06/04 00:07:47;;;;;;;6.07;4.50;;;18.10;84.30;;;16.93;98.06;96049.59;5009367;28;20041;-66
2022/06/04 00:15:51;;;;;;;6.00;4.70;;;18.00;84.60;;;16.93;98.87;96055.72;5015355;28;20041;-66
2022/06/04 00:18:18;;;;;;;7.65;4.80;;;18.00;84.90;;;16.93;98.68;96061.03;4994603;28;20030;-68
2022/06/04 00:20:44;;;;;;;6.60;4.57;;;18.00;85.00;;;16.92;99.17;96061.28;5013396;28;20048;-66
2022/06/04 00:23:10;;;;;;;6.20;4.57;;;18.00;85.30;;;16.90;99.35;96053.53;5011997;28;20034;-67
2022/06/04 00:25:37;;;;;;;4.75;4.05;;;18.00;85.30;;;16.93;99.70;96062.88;4994408;28;20042;-67
2022/06/04 00:28:05;;;;;;;7.47;4.50;;;18.00;85.00;;;16.91;99.88;96068.44;5019089;28;20049;-66
2022/06/04 00:30:31;;;;;;;7.28;5.13;;;18.00;85.10;;;16.92;99.54;96070.06;4969699;28;20026;-66
2022/06/04 00:32:57;;;;;;;5.30;4.65;;;18.00;85.00;;;16.91;99.57;96057.81;5008886;28;20106;-67
2022/06/04 00:35:23;;;;;;;5.13;4.40;;;18.00;84.80;;;16.91;99.69;96057.81;4984891;28;20033;-66
2022/06/04 00:37:49;;;;;;;4.95;4.45;;;18.00;84.80;;;16.90;99.29;96058.84;5013950;28;20049;-67
2022/06/04 00:40:33;;;;;;;5.97;4.60;;;17.90;84.90;;;16.88;100.00;96055.59;5040866;28;20024;-67
2022/06/04 00:42:59;;;;;;;5.90;4.60;;;18.00;84.70;;;16.84;99.02;96046.47;5028877;28;20029;-67
2022/06/04 00:45:37;;;;;;;8.32;4.65;;;18.00;84.60;;;16.86;99.29;96055.03;5022465;28;20064;-68
2022/06/04 00:48:06;;;;;;;5.95;4.28;;;18.00;84.30;;;16.84;99.02;96051.81;5026137;28;20077;-67
2022/06/04 00:50:34;;;;;;;5.47;4.40;;;18.00;84.20;;;16.84;99.11;96049.16;5012147;28;21666;-67
2022/06/04 00:53:01;;;;;;;4.47;4.07;;;17.90;84.20;;;16.83;98.76;96045.69;4991594;28;20032;-67
2022/06/04 00:55:33;;;;;;;4.65;4.15;;;17.90;84.10;;;16.83;98.80;96039.56;4988682;28;20033;-66
2022/06/04 00:58:30;;;;;;;7.13;4.13;;;17.90;83.90;;;16.80;98.96;96040.03;5002937;28;20037;-67
2022/06/04 01:01:07;;;;;;;7.82;4.28;;;17.90;83.80;;;16.79;98.40;96047.19;5005600;28;20056;-66
2022/06/04 01:03:56;;;;;;;7.75;4.00;;;17.90;83.60;;;16.76;98.07;96052.16;5012541;28;20068;-67
2022/06/04 01:06:50;;;;;;;6.18;4.57;;;17.80;83.60;;;16.72;97.45;96051.75;5006447;28;20037;-66
2022/06/04 01:09:34;;;;;;;4.68;4.18;;;17.80;83.40;;;16.69;97.99;96057.53;4988135;28;20071;-67
2022/06/04 01:12:26;;;;;;;5.20;4.15;;;17.70;83.60;;;16.67;97.16;96053.50;5014946;28;20033;-66
2022/06/04 01:15:19;;;;;;;6.35;4.10;;;17.70;83.50;;;16.62;97.45;96058.66;5025395;28;20032;-66
2022/06/04 01:18:03;;;;;;;8.05;4.28;;;17.70;83.30;;;16.57;97.59;96066.50;5018167;28;20037;-67
2022/06/04 01:21:00;;;;;;;5.45;4.22;;;17.60;83.30;;;16.53;96.75;96061.66;5022059;28;20037;-66
2022/06/04 01:24:15;;;;;;;8.23;4.40;;;17.60;83.20;;;16.48;97.43;96071.31;5006324;28;20527;-65
2022/06/04 01:26:45;;;;;;;5.90;4.20;;;17.60;83.10;;;16.42;96.48;96074.88;4991521;28;20069;-66
2022/06/04 01:29:16;;;;;;;6.53;3.93;;;17.50;83.40;;;16.38;96.90;96071.88;5000861;28;20419;-66
2022/06/04 01:32:07;;;;;;;6.22;4.03;;;17.40;83.50;;;16.34;96.61;96070.69;5021367;28;20160;-66
2022/06/04 01:34:38;;;;;;;6.50;4.05;;;17.30;83.30;;;16.27;96.15;96069.97;4982514;28;20564;-66
2022/06/04 01:37:10;;;;;;;6.65;4.63;;;17.30;83.30;;;16.25;96.22;96077.34;4975203;28;20040;-66
2022/06/04 01:42:23;;;;;;;5.63;4.00;;;17.30;83.30;;;16.20;95.68;96067.41;5007496;28;20059;-65
2022/06/04 01:44:49;;;;;;;5.35;3.00;;;17.30;83.10;;;16.17;96.13;96078.47;5033054;28;20127;-66
2022/06/04 01:47:15;;;;;;;3.55;2.60;;;17.20;83.00;;;16.14;95.72;96078.13;5014436;28;20029;-65
2022/06/04 01:49:51;;;;;;;2.67;2.28;;;17.20;83.00;;;16.11;96.32;96068.75;4970663;28;20840;-66
2022/06/04 01:52:37;;;;;;;3.20;2.90;;;17.20;83.00;;;16.10;96.30;96079.59;4991405;28;20455;-65
2022/06/04 01:55:47;;;;;;;4.30;2.90;;;17.10;83.10;;;16.08;96.18;96084.34;4984324;28;20040;-65
2022/06/04 01:58:25;;;;;;;3.28;2.80;;;17.10;83.30;;;16.04;96.22;96075.16;5016514;28;20122;-65
2022/06/04 02:00:58;;;;;;;3.35;2.88;;;17.10;83.40;;;16.03;96.20;96073.56;5013632;28;20526;-66
2022/06/04 02:03:32;;;;;;;3.88;3.15;;;17.10;83.30;;;16.01;96.14;96068.47;5020971;28;20083;-65
2022/06/04 02:06:20;;;;;;;3.97;3.53;;;17.10;83.30;;;16.01;96.17;96067.66;5010414;28;20041;-66
2022/06/04 02:08:49;;;;;;;4.25;3.40;;;17.10;83.20;;;15.97;97.04;96059.34;5020140;28;20111;-66
2022/06/04 02:11:20;;;;;;;4.20;3.22;;;17.00;83.50;;;15.95;96.68;96064.06;4995016;28;20035;-66
2022/06/04 02:13:47;;;;;;;;;;;17.00;83.90;;;15.91;97.15;96068.19;4981953;28;20079;-66
2022/06/04 02:16:23;;;;;;;4.30;3.33;;;17.00;83.40;;;15.87;97.04;96062.53;5038317;28;19913;-66
2022/06/04 02:18:49;;;;;;;4.38;3.33;;;16.90;83.70;;;15.83;96.79;96064.00;5023227;28;20079;-66
2022/06/04 02:21:16;;;;;;;3.90;3.50;;;16.90;83.70;;;15.81;96.61;96052.78;5021252;28;20029;-66
2022/06/04 02:23:43;;;;;;;4.53;3.50;;;16.90;83.80;;;15.80;97.64;96051.19;5005311;28;20527;-65
2022/06/04 02:26:09;;;;;;;3.63;3.30;;;16.90;84.00;;;15.81;97.84;96050.16;5001709;28;20065;-66
2022/06/04 02:28:36;;;;;;;5.35;3.50;;;17.00;84.00;;;15.83;97.53;96058.69;5023242;28;20045;-66
2022/06/04 02:31:35;;;;;;;15.25;4.38;;;17.00;83.90;;;15.82;97.79;96050.94;5005232;28;20036;-65
2022/06/04 02:34:18;;;;;;;3.90;3.60;;;16.90;84.10;;;15.81;98.17;96052.78;5029826;28;20034;-66
2022/06/04 02:37:21;;;;;;;5.43;3.92;;;16.90;84.00;;;15.78;97.71;96047.94;5025995;28;20033;-65
2022/06/04 02:40:20;;;;;;;3.88;3.20;;;16.90;83.50;;;15.77;97.42;96048.97;5012509;28;20041;-66
2022/06/04 02:43:04;;;;;;;5.60;2.90;;;16.80;83.30;;;15.72;96.81;96056.78;5012624;28;20116;-66
2022/06/04 02:45:56;;;;;;;24.65;4.28;;;16.80;83.10;;;15.68;96.51;96060.94;5023262;28;20030;-66
2022/06/04 02:48:40;;;;;;;22.55;4.70;;;16.70;83.50;;;15.67;98.07;96061.16;4998127;28;20443;-67
2022/06/04 02:51:10;;;;;;;44.45;5.57;;;16.80;83.80;;;15.60;97.98;96064.66;5013527;28;20033;-65
2022/06/04 02:53:36;;;;;;;11.50;4.63;;;16.60;84.50;;;15.56;98.08;96060.00;5023204;28;20524;-65
2022/06/04 02:56:16;;;;;;;24.63;4.35;;;16.60;84.30;;;15.51;97.38;96067.81;5005852;28;20045;-67
2022/06/04 02:58:42;;;;;;;9.23;3.85;;;16.60;83.90;;;15.44;97.54;96069.72;5017940;28;20061;-66
2022/06/04 03:01:09;;;;;;;9.65;3.60;;;16.40;84.00;;;15.41;96.65;96062.22;5009628;28;20034;-66
2022/06/04 03:03:35;;;;;;;22.48;3.95;;;16.50;83.90;;;15.38;97.14;96059.97;5003368;28;20125;-67
2022/06/04 03:06:03;;;;;;;3.88;3.45;;;16.50;83.50;;;15.33;96.16;96055.34;5012891;28;20038;-66
2022/06/04 03:08:33;;;;;;;4.05;3.10;;;16.40;83.80;;;15.33;96.82;96053.50;5011553;28;21664;-67
2022/06/04 03:10:58;;;;;;;7.30;3.33;;;16.50;83.80;;;15.31;96.36;96055.56;5011396;28;20554;-66
2022/06/04 03:13:24;;;;;;;10.80;3.42;;;16.50;83.60;;;15.33;96.78;96058.81;5013376;28;20038;-66
2022/06/04 03:15:50;;;;;;;7.05;3.40;;;16.50;83.50;;;15.30;97.37;96061.91;5019688;28;20026;-66
2022/06/04 03:18:16;;;;;;;4.22;3.50;;;16.40;83.40;;;15.28;96.59;96058.66;5005303;28;20021;-66
2022/06/04 03:20:42;;;;;;;37.03;31.77;;;16.50;83.40;;;15.28;96.63;96061.31;5020530;28;20040;-67
2022/06/04 03:23:07;;;;;;;13.18;11.57;;;16.50;83.50;;;15.30;96.36;96069.84;5029881;28;20570;-65
2022/06/04 03:25:35;;;;;;;23.38;20.15;;;16.50;83.40;;;15.31;96.60;96071.47;5031681;28;20130;-67
2022/06/04 03:28:01;;;;;;;5.55;4.88;;;16.50;83.20;;;15.28;96.00;96069.25;5033621;28;20037;-69
2022/06/04 03:30:27;;;;;;;13.70;12.27;;;16.50;83.00;;;15.29;97.09;96073.53;5026727;28;20042;-67
2022/06/04 03:32:54;;;;;;;8.18;6.43;;;16.50;83.00;;;15.27;95.77;96078.25;5028922;28;20125;-67
2022/06/04 03:35:19;;;;;;;7.05;5.93;;;16.50;82.70;;;15.30;96.29;96082.28;4991918;28;20034;-66
2022/06/04 03:37:45;;;;;;;26.33;22.58;;;16.50;82.30;;;15.30;96.17;96085.75;4995028;28;20060;-67
2022/06/04 03:40:11;;;;;;;23.80;21.30;;;16.50;82.50;;;15.30;95.02;96088.41;5018187;28;20128;-71
2022/06/04 03:42:37;;;;;;;28.92;25.60;;;16.50;82.60;;;15.28;96.06;96084.34;4974878;28;20045;-67
2022/06/04 03:45:04;;;;;;;27.98;22.65;;;16.50;82.30;;;15.28;95.87;96081.69;5017615;28;20065;-64
2022/06/04 03:47:33;;;;;;;18.05;16.17;;;16.50;82.50;;;15.28;95.68;96087.00;5012681;28;20133;-62
2022/06/04 03:49:58;;;;;;;16.70;13.73;;;16.50;82.60;;;15.29;95.94;96084.13;4991886;28;20041;-67
2022/06/04 03:52:24;;;;;;;21.80;18.13;;;16.50;82.30;;;15.28;95.32;96082.50;5017799;28;20041;-67
2022/06/04 03:54:52;;;;;;;15.00;12.13;;;16.50;82.50;;;15.27;94.73;96082.72;5023371;28;20461;-66
2022/06/04 03:57:41;;;;;;;6.43;5.25;;;16.50;82.30;;;15.28;95.06;96090.47;5019113;28;20033;-67
2022/06/04 04:00:31;;;;;;;2.80;2.50;;;16.60;82.30;;;15.29;94.58;96089.44;5020202;28;20029;-66
2022/06/04 04:02:57;;;;;;;23.20;17.40;;;16.50;82.20;;;15.28;95.26;96090.47;5015205;28;20101;-67
2022/06/04 04:05:27;;;;;;;13.52;11.35;;;16.50;82.30;;;15.30;95.96;96091.06;5016846;28;20124;-67
2022/06/04 04:07:54;;;;;;;37.70;33.28;;;16.60;82.20;;;15.29;94.67;96102.69;5033230;28;20094;-67
2022/06/04 04:10:20;;;;;;;15.77;13.90;;;16.60;82.20;;;15.31;94.32;96095.31;5004764;28;20044;-67
2022/06/04 04:12:45;;;;;;;9.75;8.18;;;16.60;82.10;;;15.32;95.04;96096.94;4991263;28;20116;-66
2022/06/04 04:15:12;;;;;;;7.60;5.63;;;16.60;82.10;;;15.31;95.04;96099.81;5035534;28;20434;-67
2022/06/04 04:17:39;;;;;;;8.68;4.43;;;16.50;82.20;;;15.29;95.61;96086.78;4984415;28;20038;-66
2022/06/04 04:20:09;;;;;;;5.18;3.80;;;16.50;82.40;;;15.25;95.02;96090.91;5021349;28;20132;-67
2022/06/04 04:22:35;;;;;;;14.00;4.15;;;16.50;82.70;;;15.23;96.57;96092.97;5014167;28;20049;-66
2022/06/04 04:25:01;;;;;;;4.57;4.10;;;16.50;82.70;;;15.23;95.15;96090.31;5036379;28;20033;-67
2022/06/04 04:27:27;;;;;;;8.23;4.22;;;16.50;82.70;;;15.22;95.14;96091.34;5020709;28;20037;-64
2022/06/04 04:29:53;;;;;;;4.53;4.13;;;16.40;82.80;;;15.22;96.27;96085.22;5037750;28;20048;-72
2022/06/04 04:32:19;;;;;;;4.18;3.78;;;16.50;82.80;;;15.24;96.55;96088.47;5013867;28;20048;-64
2022/06/04 04:34:44;;;;;;;4.43;4.03;;;16.50;82.80;;;15.23;95.66;96092.97;5024567;28;20053;-65
2022/06/04 04:37:10;;;;;;;4.55;4.10;;;16.60;82.70;;;15.22;97.48;96086.03;5017137;28;20030;-64
2022/06/04 04:39:36;;;;;;;6.28;4.20;;;16.50;82.90;;;15.22;96.58;96075.44;4992866;28;20038;-63
2022/06/04 04:42:02;;;;;;;5.40;4.07;;;16.60;82.90;;;15.25;97.00;96077.66;4992643;28;20125;-65
2022/06/04 04:44:28;;;;;;;42.00;36.60;;;16.60;82.80;;;15.29;97.56;96080.66;5030118;28;20087;-65
2022/06/04 04:46:53;;;;;;;22.45;19.50;;;16.70;83.00;;;15.32;96.51;96086.34;5030115;28;20042;-65
2022/06/04 04:49:19;;;;;;;7.07;6.18;;;16.60;83.30;;;15.33;97.73;96077.34;5030980;28;20038;-65
2022/06/04 04:51:45;;;;;;;6.25;5.00;;;16.70;83.30;;;15.35;97.85;96085.09;5010928;28;20116;-64
2022/06/04 04:54:11;;;;;;;5.07;4.60;;;16.70;83.30;;;15.38;97.57;96091.78;5013040;28;20116;-65
2022/06/04 04:56:38;;;;;;;4.43;3.47;;;16.70;83.30;;;15.41;97.97;96086.06;5029715;28;20445;-66
2022/06/04 04:59:03;;;;;;;3.67;3.35;;;16.80;83.40;;;15.46;98.37;96080.91;4978054;28;20021;-65
2022/06/04 05:01:29;;;;;;;4.28;3.88;;;16.90;83.30;;;15.50;98.17;96076.78;5013375;28;20488;-65
2022/06/04 05:03:55;;;;;;;3.60;3.30;;;16.90;83.40;;;15.54;99.17;96078.78;4976452;28;20505;-64
2022/06/04 05:06:22;;;;;;;3.50;2.88;;;17.00;83.40;;;15.61;99.27;96084.03;5013664;28;20087;-65
2022/06/04 05:08:48;;;;;;;3.05;2.75;;;17.10;83.40;;;15.66;99.56;96083.41;4991524;28;20048;-66
2022/06/04 05:11:17;;;;;;;4.05;2.92;;;17.10;83.80;;;15.72;100.00;96096.56;4992178;28;20485;-65
2022/06/04 05:13:43;;;;;;;5.15;3.30;;;17.20;83.90;;;15.77;100.00;96098.56;5009432;28;20030;-64
2022/06/04 05:16:09;;;;;;;4.38;3.97;;;17.30;83.90;;;15.78;100.00;96085.06;5003512;28;20029;-65
2022/06/04 05:18:35;;;;;;;4.22;3.83;;;17.20;84.10;;;15.82;100.00;96086.25;5025766;28;20026;-65
2022/06/04 05:21:42;;;;;;;4.80;4.40;;;17.30;84.50;;;15.87;100.00;96094.38;4999330;28;20050;-65
2022/06/04 05:24:14;;;;;;;5.57;5.07;;;17.40;84.60;;;15.88;100.00;96100.47;4974759;28;20570;-64
2022/06/04 05:26:39;;;;;;;7.10;5.13;;;17.40;84.40;;;15.93;100.00;96097.97;4983731;28;20080;-66
2022/06/04 05:29:05;;;;;;;6.70;5.57;;;17.50;84.80;;;16.00;100.00;96104.00;4980104;28;20539;-65
2022/06/04 05:31:31;;;;;;;5.75;5.22;;;17.50;84.70;;;16.05;100.00;96105.97;5012091;28;20286;-66
2022/06/04 05:33:57;;;;;;;7.05;6.38;;;17.60;84.70;;;16.12;100.00;96096.09;4996421;28;20091;-64
2022/06/04 05:36:23;;;;;;;7.10;6.18;;;17.70;84.30;;;16.22;100.00;96091.06;4985526;28;20042;-66
2022/06/04 05:38:48;;;;;;;11.70;6.72;;;17.90;84.20;;;16.37;100.00;96088.03;4986021;28;20053;-64
2022/06/04 05:41:15;;;;;;;7.05;5.47;;;18.20;84.20;;;16.53;100.00;96098.81;4987649;28;20080;-64
2022/06/04 05:43:41;;;;;;;6.40;5.75;;;18.30;83.90;;;16.66;100.00;96102.31;4999268;28;20038;-66
2022/06/04 05:46:10;;;;;;;8.32;5.30;;;18.40;83.00;;;16.74;100.00;96099.34;5002227;28;20034;-64
2022/06/04 05:48:38;;;;;;;5.95;4.85;;;18.40;82.90;;;16.80;100.00;96101.94;5020258;28;20047;-66
2022/06/04 05:51:04;;;;;;;5.60;4.95;;;18.50;83.00;;;16.86;100.00;96108.16;5012827;28;20018;-65
2022/06/04 05:53:29;;;;;;;5.07;4.57;;;18.50;83.00;;;16.93;100.00;96106.22;5028266;28;20048;-65
2022/06/04 05:55:55;;;;;;;5.00;4.50;;;18.60;82.90;;;16.99;100.00;96102.66;4963443;28;20084;-66
2022/06/04 05:58:21;;;;;;;5.85;4.93;;;18.60;82.80;;;17.03;100.00;96111.78;4994851;28;20144;-66
2022/06/04 06:00:47;;;;;;;5.50;5.00;;;18.60;83.30;;;17.09;100.00;96118.03;4958724;28;20034;-65
2022/06/04 06:03:12;;;;;;;5.43;4.80;;;18.60;82.70;;;17.14;100.00;96110.97;4973267;28;20023;-66
2022/06/04 06:05:43;;;;;;;6.07;4.93;;;18.80;82.30;;;17.24;100.00;96098.97;4970899;28;20576;-65
2022/06/04 06:08:10;;;;;;;5.18;4.00;;;19.00;82.20;;;17.37;100.00;96104.88;4994625;28;20037;-64
2022/06/04 06:10:43;;;;;;;5.60;4.40;;;19.20;81.70;;;17.57;100.00;96109.03;5010880;28;20038;-65
2022/06/04 06:13:10;;;;;;;6.47;4.40;;;19.60;81.50;;;17.79;100.00;96117.25;5011477;28;20033;-66
2022/06/04 06:15:36;;;;;;;4.28;3.88;;;19.90;79.00;;;18.01;99.97;96113.75;5022010;28;20037;-65
2022/06/04 06:18:02;;;;;;;4.40;3.65;;;20.20;78.80;;;18.27;97.57;96119.56;5012400;28;20513;-65
2022/06/04 06:20:27;;;;;;;4.13;3.72;;;20.30;77.50;;;18.47;96.17;96117.28;4993894;28;20041;-65
2022/06/04 06:22:54;;;;;;;4.00;3.45;;;20.50;76.90;;;18.61;94.78;96120.50;5012422;28;20041;-66
2022/06/04 06:25:20;;;;;;;3.63;3.20;;;20.60;76.40;;;18.70;94.18;96118.28;5019421;28;20423;-64
2022/06/04 06:27:46;;;;;;;5.82;3.90;;;20.50;76.50;;;18.78;94.54;96129.34;5014940;28;20050;-64
2022/06/04 06:30:13;;;;;;;5.50;3.45;;;20.60;77.10;;;18.80;94.05;96123.81;5025983;28;20053;-66
2022/06/04 06:32:40;;;;;;;4.18;3.60;;;20.60;77.40;;;18.88;93.71;96129.53;5007971;28;20116;-65
2022/06/04 06:35:07;;;;;;;6.22;3.75;;;20.60;77.70;;;18.90;93.48;96135.44;5005712;28;20040;-69
2022/06/04 06:37:32;;;;;;;4.60;3.88;;;20.60;77.90;;;18.93;94.84;96145.59;5007938;28;20041;-67
2022/06/04 06:39:58;;;;;;;5.47;3.83;;;20.60;78.40;;;18.95;94.34;96148.84;4997703;28;20037;-68
2022/06/04 06:42:24;;;;;;;3.90;3.50;;;20.60;78.80;;;18.94;93.56;96149.88;4980937;28;20129;-68
2022/06/04 06:44:50;;;;;;;5.43;3.83;;;20.60;78.20;;;18.94;93.47;96159.75;5008769;28;20034;-68
2022/06/04 06:47:15;;;;;;;7.78;6.25;;;20.50;78.20;;;18.88;93.10;96164.19;5038338;28;20049;-68
2022/06/04 06:49:41;;;;;;;6.50;5.78;;;20.40;78.60;;;18.87;92.93;96162.56;5009402;28;20676;-67
2022/06/04 06:52:08;;;;;;;5.10;4.20;;;20.40;78.80;;;18.85;93.90;96154.00;5023432;28;20110;-67
2022/06/04 06:54:36;;;;;;;4.57;4.13;;;20.40;78.90;;;18.82;93.61;96148.34;5014272;28;20125;-68
2022/06/04 06:57:04;;;;;;;4.90;4.15;;;20.40;79.00;;;18.82;94.09;96154.50;5019030;28;20116;-67
2022/06/04 06:59:30;;;;;;;6.78;4.20;;;20.40;79.00;;;18.84;94.91;96160.38;4978805;28;20489;-71
2022/06/04 07:01:57;;;;;;;4.78;3.30;;;20.50;79.50;;;18.83;95.33;96156.09;4998526;28;20043;-71
2022/06/04 07:04:23;;;;;;;4.57;3.30;;;20.40;79.10;;;18.81;94.55;96163.53;5000754;28;20046;-70
2022/06/04 07:06:59;;;;;;;11.18;5.72;;;20.50;79.20;;;18.84;95.87;96167.56;4990569;28;20034;-66
2022/06/04 07:09:34;;;;;;;12.45;9.73;;;20.40;80.00;;;18.83;95.43;96172.09;5031324;28;20038;-68
2022/06/04 07:12:00;;;;;;;9.20;6.05;;;20.50;79.90;;;18.86;96.24;96170.81;5010257;28;20048;-68
2022/06/04 07:14:26;;;;;;;9.20;4.32;;;20.50;79.90;;;18.90;96.33;96167.41;5009661;28;20496;-67
2022/06/04 07:16:53;;;;;;;6.32;4.28;;;20.60;79.80;;;18.95;95.37;96167.50;5011824;28;20065;-66
2022/06/04 07:19:20;;;;;;;5.13;4.47;;;20.70;79.60;;;19.00;95.82;96171.31;5032287;28;20562;-67
2022/06/04 07:21:46;;;;;;;7.78;5.10;;;20.70;79.50;;;19.02;95.79;96179.91;4975859;28;20457;-66
2022/06/04 07:24:12;;;;;;;4.93;4.22;;;20.70;79.40;;;19.06;95.84;96184.50;5006785;28;20068;-67
2022/06/04 07:26:38;;;;;;;5.10;4.10;;;20.70;79.40;;;19.06;95.78;96195.16;4998297;28;20041;-68
2022/06/04 07:29:04;;;;;;;5.10;3.78;;;20.70;79.00;;;19.07;94.86;96222.63;5024829;28;20040;-67
2022/06/04 07:31:31;;;;;;;11.75;9.48;;;20.70;79.10;;;19.07;94.67;96251.97;5005217;28;20046;-67
2022/06/04 07:33:58;;;;;;;7.13;4.78;;;20.70;79.60;;;19.10;96.01;96257.63;4982795;28;20095;-68
2022/06/04 07:36:28;;;;;;;5.20;4.30;;;20.70;79.60;;;19.17;95.92;96246.81;5012313;28;20041;-67
2022/06/04 07:38:54;;;;;;;5.47;3.58;;;20.90;78.70;;;19.21;94.87;96253.28;5012136;28;20465;-66
2022/06/04 07:41:26;;;;;;;4.47;2.90;;;20.90;78.70;;;19.31;93.85;96258.81;4990400;28;20202;-66
2022/06/04 07:43:52;;;;;;;6.20;4.60;;;21.00;77.90;;;19.34;94.31;96257.50;5021746;28;20663;-67
2022/06/04 07:46:19;;;;;;;3.42;2.88;;;21.00;77.60;;;19.34;92.52;96250.31;4997694;28;20132;-68
2022/06/04 07:48:46;;;;;;;4.10;2.40;;;20.90;77.20;;;19.35;92.14;96241.25;5029098;28;20097;-66
2022/06/04 07:51:12;;;;;;;5.45;2.65;;;20.90;77.00;;;19.42;92.51;96246.44;4992784;28;20037;-67
2022/06/04 07:53:37;;;;;;;2.90;2.03;;;21.10;76.80;;;19.52;91.05;96239.44;5003546;28;20046;-68
2022/06/04 07:56:15;;;;;;;5.28;1.80;;;21.30;76.30;;;19.62;89.81;96238.00;4963566;28;20052;-68
2022/06/04 07:58:41;;;;;;;3.75;1.70;;;21.20;74.70;;;19.64;89.41;96230.56;5006932;28;20026;-68
2022/06/04 08:01:07;;;;;;;3.17;1.73;;;21.10;75.00;;;19.67;89.22;96214.88;5018308;28;20072;-68
2022/06/04 08:03:33;;;;;;;4.93;1.80;;;21.20;75.70;;;19.74;88.44;96210.19;4969921;28;20058;-68
2022/06/04 08:06:00;;;;;;;3.03;1.83;;;21.20;74.90;;;19.77;88.78;96200.88;5038070;28;20150;-68
2022/06/04 08:08:25;;;;;;;6.85;1.90;;;21.30;75.40;;;19.79;89.17;96183.56;4984779;28;20037;-69
2022/06/04 08:10:51;;;;;;;5.10;1.90;;;21.40;75.30;;;19.84;87.63;96188.16;5034709;28;20099;-68
2022/06/04 08:13:22;;;;;;;1.98;1.77;;;21.40;75.70;;;19.84;88.24;96183.63;5001944;28;20037;-67
2022/06/04 08:15:48;;;;;;;4.03;1.40;;;21.50;75.00;;;19.87;89.10;96187.66;5013751;28;20134;-68
2022/06/04 08:18:14;;;;;;;2.63;1.85;;;21.60;75.50;;;19.90;87.95;96192.50;5024324;28;20539;-66
2022/06/04 08:20:41;;;;;;;4.43;1.90;;;21.60;74.80;;;19.98;88.15;96188.63;5032201;28;20034;-68
2022/06/04 08:23:08;;;;;;;5.57;1.50;;;21.80;74.20;;;20.06;88.29;96190.88;5028924;28;20044;-68
2022/06/04 08:25:40;;;;;;;2.53;1.60;;;21.90;74.20;;;20.16;86.71;96185.69;4997919;28;20544;-70
2022/06/04 08:28:07;;;;;;;4.97;2.10;;;22.10;72.90;;;20.22;86.25;96174.00;4991499;28;20528;-68
2022/06/04 08:30:32;;;;;;;5.40;1.67;;;22.10;71.80;;;20.31;85.25;96166.38;5008072;28;22114;-68
2022/06/04 08:32:58;;;;;;;4.68;1.95;;;22.20;72.00;;;20.39;85.37;96160.59;5020241;28;20025;-67
2022/06/04 08:35:24;;;;;;;7.50;2.08;;;22.30;72.20;;;20.47;83.79;96160.19;5016826;28;20191;-67
2022/06/04 08:37:50;;;;;;;2.75;1.60;;;22.40;69.30;;;20.54;82.36;96150.09;5022782;28;20033;-67
2022/06/04 08:40:31;;;;;;;2.03;1.48;;;22.60;68.30;;;20.66;81.01;96148.09;4994563;28;20514;-71
2022/06/04 08:43:52;;;;;;;3.70;1.65;;;22.70;68.30;;;20.82;80.36;96140.22;4988651;28;20506;-69
2022/06/04 08:46:34;;;;;;;1.50;1.10;;;22.80;68.30;;;20.94;79.82;96143.56;5005101;28;20104;-64
2022/06/04 08:49:11;;;;;;;4.65;1.33;;;23.00;67.20;;;20.98;79.79;96150.81;5015949;28;20072;-67
2022/06/04 08:51:37;;;;;;;2.60;1.50;;;22.90;66.50;;;21.06;80.13;96145.03;4987041;28;20038;-66
2022/06/04 08:57:32;;;;;;;2.78;1.60;;;23.10;68.10;;;21.13;80.17;96136.78;5010715;28;20403;-67
2022/06/04 08:59:58;;;;;;;2.55;1.42;;;23.20;66.20;;;21.31;78.06;96147.16;4964379;28;20045;-66
2022/06/04 09:02:33;;;;;;;6.15;1.35;;;23.30;66.00;;;21.40;77.86;96134.91;4992032;28;20046;-66
2022/06/04 09:05:17;;;;;;;1.98;1.42;;;23.50;66.20;;;21.51;78.87;96140.34;4999085;28;20021;-67
2022/06/04 09:07:47;;;;;;;2.97;1.48;;;23.60;66.90;;;21.64;77.65;96139.88;5004183;28;20076;-67
2022/06/04 09:10:39;;;;;;;5.43;1.80;;;23.80;64.60;;;21.77;76.44;96146.69;4987916;28;20029;-67
2022/06/04 09:13:22;;;;;;;6.00;1.70;;;24.10;64.50;;;21.96;76.91;96156.72;5002373;28;20030;-65
2022/06/04 09:15:57;;;;;;;3.65;1.65;;;24.30;65.00;;;22.12;76.12;96151.44;5015789;28;20037;-66
2022/06/04 09:18:32;;;;;;;2.42;1.38;;;24.50;64.20;;;22.24;74.18;96158.22;5016881;28;20044;-67
2022/06/04 09:21:00;;;;;;;3.10;1.70;;;24.60;61.10;;;22.33;74.81;96161.19;5011794;28;20099;-68
2022/06/04 09:23:37;;;;;;;2.15;1.20;;;24.60;60.80;;;22.43;72.68;96161.25;5002347;28;20025;-68
2022/06/04 09:26:15;;;;;;;3.83;1.55;;;24.70;60.60;;;22.60;72.82;96161.81;4996511;28;20507;-68
2022/06/04 09:29:10;;;;;;;2.03;1.20;;;25.00;61.00;;;22.79;72.37;96159.47;5028810;28;20034;-64
2022/06/04 09:31:55;;;;;;;2.85;1.73;;;25.20;61.30;;;22.95;71.61;96163.03;5013520;28;20487;-68
2022/06/04 09:34:38;;;;;;;3.05;1.48;;;25.40;60.00;;;23.15;70.94;96154.22;5021573;28;20155;-67
2022/06/04 09:37:08;;;;;;;3.53;1.70;;;25.70;58.40;;;23.29;71.18;96157.16;5002404;28;21855;-68
2022/06/04 09:39:47;;;;;;;2.45;1.30;;;25.90;58.80;;;23.66;69.32;96160.41;5008750;28;20048;-69
2022/06/04 09:42:13;;;;;;;5.78;1.30;;;27.00;54.70;;;24.14;70.49;96153.59;5030636;28;20034;-68
2022/06/04 09:44:59;;;;;;;3.22;1.35;;;27.80;52.90;;;24.72;65.37;96156.63;5017300;28;20041;-67
2022/06/04 09:47:40;;;;;;;5.32;1.80;;;28.70;50.80;;;25.24;65.09;96166.00;5013942;28;20052;-67
2022/06/04 09:50:24;;;;;;;2.88;1.40;;;29.00;50.50;;;25.70;62.52;96162.19;5001361;28;20029;-68
2022/06/04 09:53:09;;;;;;;3.67;1.52;;;29.50;48.80;;;26.13;60.57;96160.41;4998136;28;20037;-69
2022/06/04 09:55:35;;;;;;;3.05;1.70;;;29.90;46.50;;;26.51;63.19;96162.16;4996661;28;20033;-69
2022/06/04 09:58:05;;;;;;;3.33;1.60;;;30.30;45.50;;;26.80;61.89;96163.94;4998767;28;20068;-68
2022/06/04 10:00:33;;;;;;;2.75;1.50;;;30.60;46.80;;;27.24;60.95;96160.91;5033061;28;20059;-67
2022/06/04 10:03:12;;;;;;;3.83;1.80;;;31.40;44.00;;;27.78;57.67;96164.91;4976220;28;20030;-68
2022/06/04 10:05:55;;;;;;;6.30;1.80;;;32.10;43.30;;;28.29;55.27;96158.59;4997329;28;20461;-69
2022/06/04 10:08:25;;;;;;;7.38;1.83;;;32.70;40.70;;;28.66;55.70;96150.28;5004932;28;20132;-68
2022/06/04 10:10:57;;;;;;;4.70;1.80;;;32.30;41.70;;;28.98;53.71;96156.69;5005194;28;20060;-68
2022/06/04 10:13:42;;;;;;;2.40;1.42;;;33.20;40.50;;;29.43;54.03;96164.84;4958131;28;20046;-68
2022/06/04 10:16:22;;;;;;;3.47;1.80;;;33.50;40.10;;;29.77;49.47;96162.38;5014639;28;20066;-69
2022/06/04 10:19:17;;;;;;;2.17;1.35;;;33.20;38.50;;;29.87;48.81;96156.72;5027818;28;20756;-68
2022/06/04 10:21:49;;;;;;;3.35;1.58;;;33.10;39.80;;;30.01;50.71;96155.81;5011126;28;20041;-68
2022/06/04 10:24:22;;;;;;;2.25;1.70;;;33.50;40.10;;;30.22;50.75;96145.25;4995706;28;20408;-69
2022/06/04 10:27:12;;;;;;;3.13;1.80;;;33.50;40.30;;;30.37;47.82;96140.22;4995547;28;20505;-69
2022/06/04 10:30:11;;;;;;;2.95;1.60;;;33.60;38.50;;;30.78;47.34;96139.06;5003411;28;20050;-67
2022/06/04 10:33:14;;;;;;;3.03;1.70;;;34.50;37.60;;;31.26;47.06;96140.88;5018069;28;20057;-69
2022/06/04 10:36:08;;;;;;;3.53;1.83;;;35.00;37.60;;;31.81;45.57;96135.53;5004831;28;20029;-69
2022/06/04 10:39:15;;;;;;;6.25;2.58;;;35.80;36.10;;;32.22;44.66;96137.66;5010350;28;20036;-69
2022/06/04 10:42:02;;;;;;;4.68;1.88;;;35.80;35.30;;;32.67;43.71;96134.41;5013899;28;20133;-69
2022/06/04 10:45:25;;;;;;;4.40;1.80;;;36.60;34.80;;;33.16;42.46;96141.00;5007816;28;20039;-68
2022/06/04 10:48:32;;;;;;;3.63;2.42;;;36.70;34.60;;;33.65;41.70;96134.97;4990490;28;20127;-68
2022/06/04 10:54:16;;;;;;;3.22;1.60;;;37.20;32.50;;;34.29;40.47;96132.50;5014396;28;20040;-69